createdAt,value
2022-08-25T00:02:03.118Z,25.54
2022-08-25T00:04:30.221Z,25.59
2022-08-25T00:07:02.224Z,25.69
2022-08-25T00:09:30.681Z,25.58
2022-08-25T00:11:57.590Z,25.58
2022-08-25T00:14:33.386Z,25.77
2022-08-25T00:17:00.254Z,25.76
2022-08-25T00:19:32.898Z,25.70
2022-08-25T00:22:00.505Z,25.74
2022-08-25T00:24:27.845Z,25.74
2022-08-25T00:26:57.081Z,25.75
2022-08-25T00:29:28.597Z,25.80
2022-08-25T00:31:56.247Z,25.83
2022-08-25T00:34:27.711Z,25.72
2022-08-25T00:36:54.615Z,25.60
2022-08-25T00:39:24.025Z,25.57
2022-08-25T00:41:53.256Z,25.51
2022-08-25T00:44:20.867Z,25.40
2022-08-25T00:46:50.860Z,25.32
2022-08-25T00:49:37.826Z,25.18
2022-08-25T00:52:10.432Z,25.16
2022-08-25T00:54:46.103Z,25.17
2022-08-25T00:57:15.419Z,25.09
2022-08-25T00:59:44.291Z,24.98
2022-08-25T01:02:14.510Z,24.91
2022-08-25T01:04:48.614Z,24.96
2022-08-25T01:07:19.508Z,24.89
2022-08-25T01:09:49.865Z,24.86
2022-08-25T01:12:16.566Z,24.83
2022-08-25T01:14:46.491Z,24.72
2022-08-25T01:17:14.150Z,24.68
2022-08-25T01:19:40.865Z,24.67
2022-08-25T01:22:08.054Z,24.78
2022-08-25T01:24:57.538Z,24.73
2022-08-25T01:27:24.233Z,24.90
2022-08-25T01:29:50.998Z,25.04
2022-08-25T01:32:17.810Z,25.04
2022-08-25T01:34:45.598Z,25.10
2022-08-25T01:37:14.476Z,25.13
2022-08-25T01:39:41.311Z,25.13
2022-08-25T01:42:11.310Z,25.13
2022-08-25T01:44:40.969Z,25.11
2022-08-25T01:47:08.769Z,25.12
2022-08-25T01:49:35.656Z,25.04
2022-08-25T01:52:36.143Z,24.88
2022-08-25T01:55:03.389Z,24.78
2022-08-25T01:57:31.617Z,24.60
2022-08-25T01:59:59.179Z,24.34
2022-08-25T02:02:26.267Z,24.28
2022-08-25T02:04:53.242Z,24.25
2022-08-25T02:07:19.996Z,24.17
2022-08-25T02:09:46.976Z,24.00
2022-08-25T02:12:13.896Z,23.88
2022-08-25T02:14:40.851Z,23.71
2022-08-25T02:17:09.712Z,23.85
2022-08-25T02:19:36.628Z,23.60
2022-08-25T02:22:03.622Z,23.70
2022-08-25T02:24:30.462Z,23.76
2022-08-25T02:26:58.079Z,23.79
2022-08-25T02:29:24.991Z,23.75
2022-08-25T02:31:51.722Z,23.75
2022-08-25T02:34:18.676Z,23.59
2022-08-25T02:36:45.501Z,23.34
2022-08-25T02:39:13.142Z,23.31
2022-08-25T02:41:40.204Z,23.40
2022-08-25T02:44:08.051Z,23.50
2022-08-25T02:46:35.576Z,23.53
2022-08-25T02:49:02.490Z,23.51
2022-08-25T02:51:30.141Z,23.48
2022-08-25T02:53:59.098Z,23.25
2022-08-25T02:56:26.114Z,23.19
2022-08-25T02:58:53.238Z,23.22
2022-08-25T03:01:20.831Z,23.24
2022-08-25T03:03:52.285Z,23.21
2022-08-25T03:06:22.896Z,23.05
2022-08-25T03:08:50.110Z,22.81
2022-08-25T03:11:17.779Z,22.78
2022-08-25T03:13:45.264Z,22.91
2022-08-25T03:16:12.362Z,22.73
2022-08-25T03:18:42.139Z,22.61
2022-08-25T03:21:11.380Z,22.55
2022-08-25T03:23:40.204Z,22.67
2022-08-25T03:26:25.782Z,22.84
2022-08-25T03:28:54.631Z,22.83
2022-08-25T03:31:23.365Z,22.83
2022-08-25T03:33:49.998Z,22.83
2022-08-25T03:36:16.740Z,22.62
2022-08-25T03:38:43.381Z,22.69
2022-08-25T03:41:25.606Z,22.63
2022-08-25T03:43:55.294Z,22.67
2022-08-25T03:46:43.382Z,22.49
2022-08-25T03:49:14.019Z,22.46
2022-08-25T03:51:46.849Z,22.41
2022-08-25T03:54:16.564Z,22.37
2022-08-25T03:56:43.328Z,22.51
2022-08-25T03:59:10.176Z,22.61
2022-08-25T04:01:42.090Z,22.47
2022-08-25T04:04:10.634Z,22.43
2022-08-25T04:06:39.102Z,22.53
2022-08-25T04:09:06.578Z,22.49
2022-08-25T04:11:33.379Z,22.32
2022-08-25T04:14:02.241Z,22.24
2022-08-25T04:16:32.109Z,22.29
2022-08-25T04:19:02.134Z,22.22
2022-08-25T04:21:29.532Z,22.29
2022-08-25T04:23:57.197Z,22.35
2022-08-25T04:26:30.083Z,22.35
2022-08-25T04:28:58.983Z,22.44
2022-08-25T04:31:26.877Z,22.41
2022-08-25T04:33:54.098Z,22.43
2022-08-25T04:36:21.448Z,22.52
2022-08-25T04:38:49.764Z,22.52
2022-08-25T04:41:19.647Z,22.52
2022-08-25T04:43:46.470Z,22.57
2022-08-25T04:46:25.392Z,22.53
2022-08-25T04:48:54.512Z,22.55
2022-08-25T04:51:24.757Z,22.61
2022-08-25T04:53:52.142Z,22.73
2022-08-25T04:56:21.731Z,22.73
2022-08-25T04:58:48.335Z,22.70
2022-08-25T05:01:18.973Z,22.70
2022-08-25T05:03:47.378Z,22.76
2022-08-25T05:06:16.331Z,22.84
2022-08-25T05:08:45.744Z,22.87
2022-08-25T05:11:16.485Z,22.89
2022-08-25T05:13:46.354Z,22.96
2022-08-25T05:16:21.459Z,22.94
2022-08-25T05:18:48.935Z,22.95
2022-08-25T05:21:19.537Z,22.89
2022-08-25T05:23:47.576Z,22.91
2022-08-25T05:26:20.464Z,22.92
2022-08-25T05:28:50.336Z,22.91
2022-08-25T05:31:17.905Z,22.91
2022-08-25T05:33:45.118Z,22.98
2022-08-25T05:36:14.259Z,23.00
2022-08-25T05:38:41.876Z,23.03
2022-08-25T05:41:11.959Z,23.01
2022-08-25T05:43:40.378Z,23.09
2022-08-25T05:46:08.149Z,23.12
2022-08-25T05:48:35.935Z,23.09
2022-08-25T05:51:06.983Z,23.13
2022-08-25T05:53:34.218Z,23.16
2022-08-25T05:56:00.971Z,23.14
2022-08-25T05:58:28.905Z,23.15
2022-08-25T06:00:57.669Z,23.19
2022-08-25T06:03:24.428Z,23.19
2022-08-25T06:05:51.060Z,23.23
2022-08-25T06:08:17.752Z,23.27
2022-08-25T06:10:44.458Z,23.31
2022-08-25T06:13:11.264Z,23.36
2022-08-25T06:15:38.554Z,23.26
2022-08-25T06:18:05.276Z,23.31
2022-08-25T06:20:32.329Z,23.40
2022-08-25T06:22:59.466Z,23.46
2022-08-25T06:25:27.236Z,23.52
2022-08-25T06:27:55.160Z,23.58
2022-08-25T06:30:28.592Z,23.59
2022-08-25T06:32:55.832Z,23.55
2022-08-25T06:35:22.701Z,23.51
2022-08-25T06:37:49.596Z,23.53
2022-08-25T06:40:16.867Z,23.54
2022-08-25T06:42:48.367Z,23.64
2022-08-25T06:45:15.504Z,23.80
2022-08-25T06:47:42.794Z,23.91
2022-08-25T06:50:12.703Z,23.94
2022-08-25T06:52:39.412Z,23.98
2022-08-25T06:55:06.853Z,24.06
2022-08-25T06:57:35.719Z,24.03
2022-08-25T07:00:08.949Z,24.09
2022-08-25T07:02:35.762Z,24.16
2022-08-25T07:05:04.568Z,24.25
2022-08-25T07:07:44.197Z,24.24
2022-08-25T07:10:11.501Z,24.10
2022-08-25T07:12:38.849Z,24.25
2022-08-25T07:15:21.703Z,24.31
2022-08-25T07:17:49.247Z,24.28
2022-08-25T07:20:19.086Z,24.23
2022-08-25T07:22:47.045Z,24.34
2022-08-25T07:25:13.776Z,24.49
2022-08-25T07:27:42.464Z,24.57
2022-08-25T07:30:09.996Z,24.76
2022-08-25T07:32:38.198Z,24.84
2022-08-25T07:35:15.405Z,24.79
2022-08-25T07:37:49.447Z,24.86
2022-08-25T07:40:21.162Z,25.03
2022-08-25T07:42:54.403Z,25.00
2022-08-25T07:45:29.518Z,25.15
2022-08-25T07:48:17.780Z,25.25
2022-08-25T07:50:47.602Z,25.37
2022-08-25T07:53:15.794Z,25.41
2022-08-25T07:55:45.040Z,25.32
2022-08-25T07:58:15.213Z,25.32
2022-08-25T08:00:42.420Z,25.41
2022-08-25T08:03:12.905Z,25.47
2022-08-25T08:05:47.463Z,25.57
2022-08-25T08:08:16.360Z,25.67
2022-08-25T08:11:04.020Z,25.71
2022-08-25T08:13:31.772Z,25.67
2022-08-25T08:15:58.552Z,25.80
2022-08-25T08:18:25.227Z,25.84
2022-08-25T08:20:51.822Z,25.84
2022-08-25T08:23:18.545Z,25.85
2022-08-25T08:25:45.292Z,25.90
2022-08-25T08:28:12.281Z,25.78
2022-08-25T08:30:40.140Z,25.89
2022-08-25T08:33:20.872Z,26.12
2022-08-25T08:35:47.514Z,26.29
2022-08-25T08:38:19.604Z,26.33
2022-08-25T08:41:24.768Z,26.21
2022-08-25T08:43:59.637Z,26.21
2022-08-25T08:46:38.394Z,26.27
2022-08-25T08:49:22.942Z,26.40
2022-08-25T08:51:59.277Z,26.44
2022-08-25T08:54:34.096Z,26.61
2022-08-25T08:57:16.589Z,26.69
2022-08-25T08:59:51.673Z,26.75
2022-08-25T09:02:39.552Z,26.57
2022-08-25T09:05:19.876Z,26.70
2022-08-25T09:07:47.625Z,26.81
2022-08-25T09:10:16.442Z,26.93
2022-08-25T09:12:47.947Z,26.97
2022-08-25T09:15:20.176Z,27.11
2022-08-25T09:18:11.888Z,27.25
2022-08-25T09:21:13.777Z,27.33
2022-08-25T09:24:05.629Z,27.40
2022-08-25T09:26:49.802Z,27.44
2022-08-25T09:29:25.395Z,27.48
2022-08-25T09:31:57.734Z,27.52
2022-08-25T09:34:31.009Z,27.48
2022-08-25T09:36:58.972Z,27.58
2022-08-25T09:39:26.657Z,27.70
2022-08-25T09:42:00.097Z,27.64
2022-08-25T09:44:48.392Z,27.73
2022-08-25T09:47:18.054Z,27.76
2022-08-25T09:49:49.099Z,27.87
2022-08-25T09:52:41.755Z,27.92
2022-08-25T09:55:08.623Z,28.12
2022-08-25T09:57:44.813Z,28.25
2022-08-25T10:00:15.183Z,28.21
2022-08-25T10:02:43.937Z,28.39
2022-08-25T10:05:45.836Z,28.45
2022-08-25T10:08:24.929Z,28.59
2022-08-25T10:10:57.412Z,28.42
2022-08-25T10:13:43.557Z,28.46
2022-08-25T10:16:20.118Z,28.40
2022-08-25T10:19:05.151Z,28.60
2022-08-25T10:21:31.831Z,28.58
2022-08-25T10:24:01.421Z,28.65
2022-08-25T10:26:39.277Z,28.66
2022-08-25T10:29:24.923Z,28.79
2022-08-25T10:32:05.618Z,28.73
2022-08-25T10:34:44.426Z,28.75
2022-08-25T10:37:20.394Z,28.92
2022-08-25T10:39:57.685Z,28.95
2022-08-25T10:42:43.040Z,28.96
2022-08-25T10:45:32.453Z,29.08
2022-08-25T10:48:14.544Z,29.21
2022-08-25T10:51:00.796Z,29.25
2022-08-25T10:54:00.752Z,29.11
2022-08-25T10:56:40.095Z,29.17
2022-08-25T10:59:46.843Z,29.05
2022-08-25T11:02:35.761Z,29.09
2022-08-25T11:05:07.387Z,29.21
2022-08-25T11:07:45.531Z,29.28
2022-08-25T11:10:25.240Z,29.31
2022-08-25T11:12:56.791Z,29.19
2022-08-25T11:15:29.042Z,29.12
2022-08-25T11:18:14.771Z,29.03
2022-08-25T11:21:20.587Z,29.22
2022-08-25T11:24:32.102Z,29.23
2022-08-25T11:27:06.219Z,29.19
2022-08-25T11:29:37.076Z,29.21
2022-08-25T11:32:06.466Z,29.26
2022-08-25T11:34:36.290Z,29.37
2022-08-25T11:37:27.869Z,29.36
2022-08-25T11:40:21.728Z,29.45
2022-08-25T11:43:08.190Z,29.49
2022-08-25T11:45:54.925Z,29.53
2022-08-25T11:48:45.146Z,29.38
2022-08-25T11:51:30.960Z,29.47
2022-08-25T11:54:18.349Z,29.57
2022-08-25T11:57:04.190Z,29.56
2022-08-25T11:59:49.572Z,29.50
2022-08-25T12:02:39.423Z,29.59
2022-08-25T12:05:09.313Z,29.65
2022-08-25T12:07:48.732Z,29.67
2022-08-25T12:10:20.665Z,29.64
2022-08-25T12:13:04.659Z,29.68
2022-08-25T12:15:31.487Z,29.60
2022-08-25T12:18:11.282Z,29.72
2022-08-25T12:20:53.429Z,29.83
2022-08-25T12:23:44.850Z,29.92
2022-08-25T12:26:36.461Z,29.95
2022-08-25T12:29:39.162Z,30.09
2022-08-25T12:32:49.017Z,29.89
2022-08-25T12:35:40.955Z,29.93
2022-08-25T12:38:19.286Z,29.90
2022-08-25T12:40:46.179Z,29.78
2022-08-25T12:43:26.695Z,29.75
2022-08-25T12:46:15.020Z,29.90
2022-08-25T12:48:58.843Z,29.94
2022-08-25T12:51:28.661Z,29.84
2022-08-25T12:54:22.635Z,29.66
2022-08-25T12:57:01.700Z,29.80
2022-08-25T12:59:39.395Z,29.84
2022-08-25T13:02:30.833Z,29.88
2022-08-25T13:05:51.960Z,30.05
2022-08-25T13:08:48.105Z,30.20
2022-08-25T13:11:23.695Z,30.19
2022-08-25T13:14:12.192Z,30.03
2022-08-25T13:16:39.897Z,30.06
2022-08-25T13:19:07.414Z,30.01
2022-08-25T13:21:42.844Z,30.07
2022-08-25T13:24:18.656Z,30.18
2022-08-25T13:26:49.509Z,30.19
2022-08-25T13:29:21.297Z,30.21
2022-08-25T13:32:01.226Z,30.11
2022-08-25T13:34:37.142Z,30.14
2022-08-25T13:37:27.706Z,30.25
2022-08-25T13:40:25.876Z,30.22
2022-08-25T13:42:58.055Z,30.21
2022-08-25T13:45:28.680Z,30.35
2022-08-25T13:47:57.141Z,30.38
2022-08-25T13:50:27.051Z,30.40
2022-08-25T13:53:00.820Z,30.39
2022-08-25T13:55:38.203Z,30.38
2022-08-25T13:58:38.616Z,30.44
2022-08-25T14:01:47.990Z,30.55
2022-08-25T14:04:24.732Z,30.60
2022-08-25T14:07:12.929Z,30.40
2022-08-25T14:09:47.800Z,30.37
2022-08-25T14:15:04.593Z,30.42
2022-08-25T14:17:40.206Z,30.45
2022-08-25T14:20:22.367Z,30.36
2022-08-25T14:22:54.360Z,30.30
2022-08-25T14:25:21.835Z,30.21
2022-08-25T14:28:07.296Z,30.30
2022-08-25T14:30:39.687Z,30.23
2022-08-25T14:33:11.448Z,30.33
2022-08-25T14:35:38.334Z,30.49
2022-08-25T14:38:10.762Z,30.58
2022-08-25T14:40:37.807Z,30.67
2022-08-25T14:43:04.458Z,30.74
2022-08-25T14:45:32.225Z,30.66
2022-08-25T14:48:05.373Z,30.66
2022-08-25T14:50:38.083Z,30.65
2022-08-25T14:53:09.187Z,30.62
2022-08-25T14:55:36.048Z,30.72
2022-08-25T14:58:02.794Z,30.78
2022-08-25T15:00:29.596Z,30.63
2022-08-25T15:02:56.950Z,30.58
2022-08-25T15:05:28.213Z,30.64
2022-08-25T15:08:14.950Z,30.70
2022-08-25T15:10:43.344Z,30.76
2022-08-25T15:13:10.827Z,30.77
2022-08-25T15:15:40.009Z,30.66
2022-08-25T15:18:20.542Z,30.66
2022-08-25T15:20:47.499Z,30.69
2022-08-25T15:23:20.405Z,30.69
2022-08-25T15:25:53.789Z,30.73
2022-08-25T15:28:22.362Z,30.88
2022-08-25T15:30:50.330Z,30.96
2022-08-25T15:33:17.582Z,30.90
2022-08-25T15:35:45.115Z,30.88
2022-08-25T15:38:12.582Z,30.80
2022-08-25T15:40:39.721Z,30.71
2022-08-25T15:43:07.032Z,30.78
2022-08-25T15:45:35.873Z,30.76
2022-08-25T15:48:04.405Z,30.80
2022-08-25T15:50:33.888Z,30.59
2022-08-25T15:53:00.607Z,30.62
2022-08-25T15:55:27.352Z,30.68
2022-08-25T15:57:54.062Z,30.79
2022-08-25T16:00:21.447Z,30.88
2022-08-25T16:02:48.248Z,30.90
2022-08-25T16:05:16.181Z,30.77
2022-08-25T16:07:45.886Z,30.87
2022-08-25T16:10:13.581Z,30.95
2022-08-25T16:12:40.343Z,30.97
2022-08-25T16:15:10.150Z,30.97
2022-08-25T16:17:40.643Z,31.00
2022-08-25T16:20:12.580Z,31.00
2022-08-25T16:22:41.325Z,31.05
2022-08-25T16:25:08.777Z,31.01
2022-08-25T16:27:38.634Z,31.09
2022-08-25T16:30:14.983Z,31.23
2022-08-25T16:32:44.871Z,31.15
2022-08-25T16:35:13.185Z,31.08
2022-08-25T16:37:40.441Z,31.02
2022-08-25T16:40:13.201Z,31.24
2022-08-25T16:42:41.718Z,31.16
2022-08-25T16:45:08.825Z,31.03
2022-08-25T16:47:38.022Z,31.03
2022-08-25T16:50:08.883Z,31.11
2022-08-25T16:52:58.320Z,31.07
2022-08-25T16:55:27.265Z,31.02
2022-08-25T16:57:55.398Z,30.89
2022-08-25T17:00:28.279Z,30.93
2022-08-25T17:03:05.057Z,30.98
2022-08-25T17:05:33.394Z,30.86
2022-08-25T17:08:19.667Z,30.92
2022-08-25T17:10:46.465Z,31.04
2022-08-25T17:13:13.572Z,31.02
2022-08-25T17:15:42.674Z,30.95
2022-08-25T17:18:11.209Z,30.77
2022-08-25T17:20:41.953Z,30.58
2022-08-25T17:23:12.691Z,30.22
2022-08-25T17:25:43.236Z,30.20
2022-08-25T17:28:11.935Z,30.16
2022-08-25T17:30:39.487Z,30.11
2022-08-25T17:33:06.839Z,30.09
2022-08-25T17:35:42.767Z,30.08
2022-08-25T17:38:10.929Z,29.95
2022-08-25T17:40:38.412Z,29.92
2022-08-25T17:43:06.022Z,29.87
2022-08-25T17:45:36.063Z,29.78
2022-08-25T17:48:03.137Z,29.73
2022-08-25T17:50:30.310Z,29.64
2022-08-25T17:52:57.086Z,29.51
2022-08-25T17:55:24.539Z,29.38
2022-08-25T17:57:51.211Z,29.29
2022-08-25T18:00:20.847Z,29.24
2022-08-25T18:02:47.965Z,29.16
2022-08-25T18:05:15.787Z,29.10
2022-08-25T18:07:42.479Z,29.03
2022-08-25T18:10:11.570Z,28.98
2022-08-25T18:12:38.901Z,28.87
2022-08-25T18:15:06.759Z,28.78
2022-08-25T18:17:35.685Z,28.74
2022-08-25T18:20:06.459Z,28.69
2022-08-25T18:22:34.707Z,28.65
2022-08-25T18:25:06.164Z,28.59
2022-08-25T18:27:34.568Z,28.53
2022-08-25T18:30:01.819Z,28.42
2022-08-25T18:32:29.285Z,28.38
2022-08-25T18:34:56.385Z,28.31
2022-08-25T18:37:42.310Z,28.28
2022-08-25T18:40:25.638Z,28.23
2022-08-25T18:42:57.514Z,28.19
2022-08-25T18:45:28.475Z,28.16
2022-08-25T18:47:56.285Z,28.10
2022-08-25T18:50:32.169Z,28.04
2022-08-25T18:52:59.667Z,27.98
2022-08-25T18:55:27.100Z,27.98
2022-08-25T18:57:55.335Z,27.92
2022-08-25T19:00:25.472Z,27.87
2022-08-25T19:02:55.524Z,27.89
2022-08-25T19:05:28.301Z,27.85
2022-08-25T19:07:55.335Z,27.82
2022-08-25T19:10:24.125Z,27.74
2022-08-25T19:12:52.081Z,27.69
2022-08-25T19:15:18.787Z,27.68
2022-08-25T19:17:53.110Z,27.66
2022-08-25T19:20:21.758Z,27.60
2022-08-25T19:22:49.597Z,27.55
2022-08-25T19:25:18.709Z,27.51
2022-08-25T19:27:47.138Z,27.23
2022-08-25T19:30:15.980Z,27.31
2022-08-25T19:32:44.731Z,27.32
2022-08-25T19:35:46.237Z,27.32
2022-08-25T19:38:34.062Z,27.34
2022-08-25T19:41:10.658Z,27.35
2022-08-25T19:43:55.600Z,27.31
2022-08-25T19:46:35.776Z,27.30
2022-08-25T19:49:31.763Z,27.24
2022-08-25T19:52:02.764Z,27.19
2022-08-25T19:54:44.426Z,27.16
2022-08-25T19:57:13.120Z,27.06
2022-08-25T19:59:55.305Z,26.85
2022-08-25T20:02:25.345Z,26.81
2022-08-25T20:04:59.285Z,26.77
2022-08-25T20:07:29.101Z,26.77
2022-08-25T20:09:57.059Z,26.76
2022-08-25T20:12:26.994Z,26.87
2022-08-25T20:14:54.918Z,26.83
2022-08-25T20:17:24.576Z,26.77
2022-08-25T20:19:55.855Z,26.65
2022-08-25T20:22:26.441Z,26.70
2022-08-25T20:24:57.857Z,26.67
2022-08-25T20:27:32.213Z,26.58
2022-08-25T20:29:59.516Z,26.64
2022-08-25T20:32:31.295Z,26.62
2022-08-25T20:34:57.985Z,26.62
2022-08-25T20:37:25.658Z,26.57
2022-08-25T20:39:52.735Z,26.54
2022-08-25T20:42:19.709Z,26.45
2022-08-25T20:44:47.036Z,26.42
2022-08-25T20:47:14.952Z,26.40
2022-08-25T20:49:44.862Z,26.33
2022-08-25T20:52:11.970Z,26.35
2022-08-25T20:54:40.197Z,26.32
2022-08-25T20:57:07.974Z,26.27
2022-08-25T20:59:34.954Z,26.13
2022-08-25T21:02:02.487Z,26.04
2022-08-25T21:04:30.708Z,26.10
2022-08-25T21:07:00.264Z,26.13
2022-08-25T21:09:28.451Z,26.24
2022-08-25T21:11:57.169Z,26.21
2022-08-25T21:14:25.127Z,26.01
2022-08-25T21:16:54.026Z,25.83
2022-08-25T21:19:26.552Z,25.70
2022-08-25T21:21:54.516Z,25.75
2022-08-25T21:24:28.170Z,25.83
2022-08-25T21:26:57.098Z,25.97
2022-08-25T21:29:28.380Z,25.96
2022-08-25T21:31:56.484Z,25.98
2022-08-25T21:34:23.178Z,25.97
2022-08-25T21:36:49.834Z,25.54
2022-08-25T21:39:17.254Z,25.08
2022-08-25T21:41:45.117Z,24.77
2022-08-25T21:44:13.206Z,24.98
2022-08-25T21:46:40.910Z,25.27
2022-08-25T21:49:08.393Z,25.47
2022-08-25T21:51:40.818Z,25.56
2022-08-25T21:54:11.728Z,25.65
2022-08-25T21:56:48.621Z,25.63
2022-08-25T21:59:21.200Z,25.58
2022-08-25T22:01:48.355Z,25.48
2022-08-25T22:04:15.443Z,25.50
2022-08-25T22:06:42.322Z,25.43
2022-08-25T22:09:12.701Z,25.34
2022-08-25T22:11:42.305Z,25.34
2022-08-25T22:14:10.021Z,25.28
2022-08-25T22:16:38.126Z,25.16
2022-08-25T22:19:06.859Z,25.22
2022-08-25T22:21:34.911Z,25.23
2022-08-25T22:24:01.839Z,25.23
2022-08-25T22:26:31.726Z,24.90
2022-08-25T22:28:59.654Z,25.06
2022-08-25T22:31:27.490Z,25.09
2022-08-25T22:33:57.637Z,25.07
2022-08-25T22:36:27.869Z,24.72
2022-08-25T22:38:55.799Z,24.77
2022-08-25T22:41:23.652Z,24.76
2022-08-25T22:43:53.120Z,24.68
2022-08-25T22:46:22.040Z,24.20
2022-08-25T22:48:50.380Z,24.34
2022-08-25T22:51:21.888Z,24.59
2022-08-25T22:53:49.472Z,24.68
2022-08-25T22:56:21.521Z,24.75
2022-08-25T22:58:51.516Z,24.64
2022-08-25T23:01:20.208Z,24.47
2022-08-25T23:03:47.664Z,24.10
2022-08-25T23:06:20.799Z,24.25
2022-08-25T23:08:51.467Z,24.13
2022-08-25T23:11:21.491Z,24.40
2022-08-25T23:13:49.171Z,24.56
2022-08-25T23:16:16.812Z,24.60
2022-08-25T23:18:44.993Z,24.59
2022-08-25T23:21:35.189Z,24.55
2022-08-25T23:24:08.806Z,24.44
2022-08-25T23:26:41.994Z,24.29
2022-08-25T23:29:17.997Z,23.83
2022-08-25T23:31:47.719Z,23.98
2022-08-25T23:34:16.106Z,23.93
2022-08-25T23:36:43.950Z,23.97
2022-08-25T23:39:11.135Z,23.96
2022-08-25T23:41:38.630Z,24.07
2022-08-25T23:44:06.150Z,24.17
2022-08-25T23:46:35.383Z,24.30
2022-08-25T23:49:04.771Z,24.30
2022-08-25T23:51:34.210Z,24.32
2022-08-25T23:54:05.846Z,24.36
2022-08-25T23:56:34.292Z,24.18
2022-08-25T23:59:02.940Z,23.95
